Flugplatz Ingolstadt Manching Airport

Bericht für ETSI

vom 27.05. um 14:20 UTC

Wind 2 kt aus 90°

Sichtweite 9700 m

gering bewölkt in 3500 ft

aufgelockert bewölkt in 11000 ft

Temperatur 21°C

Taupunkt 12°C

Luftfeuchtigkeit 56%

Luftdruck 1016 hPa

ETSI 271420Z 09002KT 9999 FEW035 SCT110 21/12 Q1016 BLU+BLU+ TEMPO BLU

Prognose für ETSI

vom 27.05. um 13:10 UTC

Zwischen 14:00 UTC und 23:00 UTC

Wind 5 kt aus 30°

Sichtweite 9700 m

keine signifikanten Wettererscheinungen

gering bewölkt in 3000 ft

aufgebrochene Bewölkung in 9000 ft


Zwischen 16:00 UTC und 23:00 UTC zeitweise

Wind 8 kt aus 340°

Sichtweite 7000 m

Regenschauer

aufgebrochene Bewölkung in 2000 ft

aufgebrochene Bewölkung in 6000 ft


Zwischen 18:00 UTC und 20:00 UTC mit einer Wahrscheinlichkeit von 30%

Wind 10 kt aus VRB° in Böen 25 kt

Sichtweite 3000 m

Code: TSRA

aufgebrochene Bewölkung in 1500 ft

TAF ETSI 271310Z 2714/2723 03005KT 9999 NSW FEW030 BKN090 TEMPO 2716/2723 34008KT 7000 SHRA BKN020 BKN060 PROB30 2718/2720 VRB10G25KT 3000 TSRA BKN015CB
Impressum